sensor_id;sensor_type;location;lat;lon;timestamp;temperature;humidity
10010;DHT22;5044;48.652;9.250;2022-10-26T00:01:38;11.70;99.90
10010;DHT22;5044;48.652;9.250;2022-10-26T00:04:05;11.70;99.90
10010;DHT22;5044;48.652;9.250;2022-10-26T00:06:32;11.60;99.90
10010;DHT22;5044;48.652;9.250;2022-10-26T00:08:59;11.60;99.90
10010;DHT22;5044;48.652;9.250;2022-10-26T00:11:27;11.60;99.90
10010;DHT22;5044;48.652;9.250;2022-10-26T00:13:54;11.70;99.90
10010;DHT22;5044;48.652;9.250;2022-10-26T00:16:24;11.70;99.90
10010;DHT22;5044;48.652;9.250;2022-10-26T00:18:51;11.80;99.90
10010;DHT22;5044;48.652;9.250;2022-10-26T00:21:18;11.70;99.90
10010;DHT22;5044;48.652;9.250;2022-10-26T00:23:45;11.70;99.90
10010;DHT22;5044;48.652;9.250;2022-10-26T00:26:12;11.60;99.90
10010;DHT22;5044;48.652;9.250;2022-10-26T00:28:41;11.70;99.90
10010;DHT22;5044;48.652;9.250;2022-10-26T00:31:11;11.70;99.90
10010;DHT22;5044;48.652;9.250;2022-10-26T00:33:38;11.70;99.90
10010;DHT22;5044;48.652;9.250;2022-10-26T00:36:06;11.80;99.90
10010;DHT22;5044;48.652;9.250;2022-10-26T00:38:34;11.70;99.90
10010;DHT22;5044;48.652;9.250;2022-10-26T00:41:01;11.80;99.90
10010;DHT22;5044;48.652;9.250;2022-10-26T00:43:36;11.70;99.90
10010;DHT22;5044;48.652;9.250;2022-10-26T00:46:08;11.80;99.90
10010;DHT22;5044;48.652;9.250;2022-10-26T00:48:39;11.80;99.90
10010;DHT22;5044;48.652;9.250;2022-10-26T00:51:10;12.00;99.90
10010;DHT22;5044;48.652;9.250;2022-10-26T00:53:39;11.80;99.90
10010;DHT22;5044;48.652;9.250;2022-10-26T00:56:06;11.80;99.90
10010;DHT22;5044;48.652;9.250;2022-10-26T00:58:35;11.80;99.90
10010;DHT22;5044;48.652;9.250;2022-10-26T01:01:02;11.90;99.90
10010;DHT22;5044;48.652;9.250;2022-10-26T01:03:31;11.80;99.90
10010;DHT22;5044;48.652;9.250;2022-10-26T01:05:58;11.80;99.90
10010;DHT22;5044;48.652;9.250;2022-10-26T01:08:26;11.90;99.90
10010;DHT22;5044;48.652;9.250;2022-10-26T01:10:56;11.80;99.90
10010;DHT22;5044;48.652;9.250;2022-10-26T01:13:24;12.00;99.90
10010;DHT22;5044;48.652;9.250;2022-10-26T01:16:06;11.90;99.90
10010;DHT22;5044;48.652;9.250;2022-10-26T01:18:42;11.90;99.90
10010;DHT22;5044;48.652;9.250;2022-10-26T01:27:22;11.90;99.90
10010;DHT22;5044;48.652;9.250;2022-10-26T01:30:19;11.90;99.90
10010;DHT22;5044;48.652;9.250;2022-10-26T01:33:09;11.90;99.90
10010;DHT22;5044;48.652;9.250;2022-10-26T01:35:42;11.80;99.90
10010;DHT22;5044;48.652;9.250;2022-10-26T01:38:21;11.90;99.90
10010;DHT22;5044;48.652;9.250;2022-10-26T01:40:55;11.90;99.90
10010;DHT22;5044;48.652;9.250;2022-10-26T01:43:24;11.90;99.90
10010;DHT22;5044;48.652;9.250;2022-10-26T01:45:55;11.90;99.90
10010;DHT22;5044;48.652;9.250;2022-10-26T01:48:23;11.90;99.90
10010;DHT22;5044;48.652;9.250;2022-10-26T01:50:52;12.00;99.90
10010;DHT22;5044;48.652;9.250;2022-10-26T01:53:20;12.00;99.90
10010;DHT22;5044;48.652;9.250;2022-10-26T01:55:48;11.90;99.90
10010;DHT22;5044;48.652;9.250;2022-10-26T01:58:50;11.90;99.90
10010;DHT22;5044;48.652;9.250;2022-10-26T02:04:36;11.90;99.90
10010;DHT22;5044;48.652;9.250;2022-10-26T02:07:13;12.00;99.90
10010;DHT22;5044;48.652;9.250;2022-10-26T02:09:50;11.90;99.90
10010;DHT22;5044;48.652;9.250;2022-10-26T02:12:29;11.90;99.90
10010;DHT22;5044;48.652;9.250;2022-10-26T02:15:05;11.80;99.90
10010;DHT22;5044;48.652;9.250;2022-10-26T02:17:38;11.90;99.90
10010;DHT22;5044;48.652;9.250;2022-10-26T02:20:14;11.90;99.90
10010;DHT22;5044;48.652;9.250;2022-10-26T02:22:46;11.80;99.90
10010;DHT22;5044;48.652;9.250;2022-10-26T02:25:16;11.80;99.90
10010;DHT22;5044;48.652;9.250;2022-10-26T02:27:49;11.90;99.90
10010;DHT22;5044;48.652;9.250;2022-10-26T02:30:18;11.80;99.90
10010;DHT22;5044;48.652;9.250;2022-10-26T02:32:49;11.80;99.90
10010;DHT22;5044;48.652;9.250;2022-10-26T02:35:19;11.80;99.90
10010;DHT22;5044;48.652;9.250;2022-10-26T02:37:49;11.80;99.90
10010;DHT22;5044;48.652;9.250;2022-10-26T02:40:20;11.80;99.90
10010;DHT22;5044;48.652;9.250;2022-10-26T02:42:51;11.80;99.90
10010;DHT22;5044;48.652;9.250;2022-10-26T02:45:21;11.80;99.90
10010;DHT22;5044;48.652;9.250;2022-10-26T02:47:51;11.80;99.90
10010;DHT22;5044;48.652;9.250;2022-10-26T02:50:23;11.70;99.90
10010;DHT22;5044;48.652;9.250;2022-10-26T02:52:59;11.70;99.90
10010;DHT22;5044;48.652;9.250;2022-10-26T02:55:31;11.70;99.90
10010;DHT22;5044;48.652;9.250;2022-10-26T02:58:01;11.70;99.90
10010;DHT22;5044;48.652;9.250;2022-10-26T03:00:30;11.70;99.90
10010;DHT22;5044;48.652;9.250;2022-10-26T03:02:59;11.70;99.90
10010;DHT22;5044;48.652;9.250;2022-10-26T03:05:29;11.70;99.90
10010;DHT22;5044;48.652;9.250;2022-10-26T03:07:58;11.70;99.90
10010;DHT22;5044;48.652;9.250;2022-10-26T03:10:25;11.60;99.90
10010;DHT22;5044;48.652;9.250;2022-10-26T03:12:52;11.60;99.90
10010;DHT22;5044;48.652;9.250;2022-10-26T03:15:20;11.60;99.90
10010;DHT22;5044;48.652;9.250;2022-10-26T03:17:47;11.60;99.90
10010;DHT22;5044;48.652;9.250;2022-10-26T03:20:15;11.60;99.90
10010;DHT22;5044;48.652;9.250;2022-10-26T03:22:42;11.60;99.90
10010;DHT22;5044;48.652;9.250;2022-10-26T03:25:09;11.60;99.90
10010;DHT22;5044;48.652;9.250;2022-10-26T03:27:36;11.60;99.90
10010;DHT22;5044;48.652;9.250;2022-10-26T03:30:04;11.70;99.90
10010;DHT22;5044;48.652;9.250;2022-10-26T03:32:31;11.60;99.90
10010;DHT22;5044;48.652;9.250;2022-10-26T03:34:58;11.60;99.90
10010;DHT22;5044;48.652;9.250;2022-10-26T03:37:27;11.60;99.90
10010;DHT22;5044;48.652;9.250;2022-10-26T03:39:53;11.60;99.90
10010;DHT22;5044;48.652;9.250;2022-10-26T03:42:20;11.60;99.90
10010;DHT22;5044;48.652;9.250;2022-10-26T03:44:47;11.60;99.90
10010;DHT22;5044;48.652;9.250;2022-10-26T03:47:14;11.50;99.90
10010;DHT22;5044;48.652;9.250;2022-10-26T03:49:41;11.60;99.90
10010;DHT22;5044;48.652;9.250;2022-10-26T03:52:08;11.60;99.90
10010;DHT22;5044;48.652;9.250;2022-10-26T03:54:36;11.60;99.90
10010;DHT22;5044;48.652;9.250;2022-10-26T03:57:03;11.60;99.90
10010;DHT22;5044;48.652;9.250;2022-10-26T03:59:30;11.60;99.90
10010;DHT22;5044;48.652;9.250;2022-10-26T04:01:57;11.70;99.90
10010;DHT22;5044;48.652;9.250;2022-10-26T04:04:24;11.60;99.90
10010;DHT22;5044;48.652;9.250;2022-10-26T04:06:51;11.60;99.90
10010;DHT22;5044;48.652;9.250;2022-10-26T04:09:18;11.60;99.90
10010;DHT22;5044;48.652;9.250;2022-10-26T04:11:46;11.60;99.90
10010;DHT22;5044;48.652;9.250;2022-10-26T04:14:13;11.60;99.90
10010;DHT22;5044;48.652;9.250;2022-10-26T04:16:40;11.60;99.90
10010;DHT22;5044;48.652;9.250;2022-10-26T04:19:07;11.60;99.90
10010;DHT22;5044;48.652;9.250;2022-10-26T04:21:34;11.60;99.90
10010;DHT22;5044;48.652;9.250;2022-10-26T04:24:01;11.60;99.90
10010;DHT22;5044;48.652;9.250;2022-10-26T04:26:28;11.60;99.90
10010;DHT22;5044;48.652;9.250;2022-10-26T04:28:57;11.50;99.90
10010;DHT22;5044;48.652;9.250;2022-10-26T04:31:23;11.50;99.90
10010;DHT22;5044;48.652;9.250;2022-10-26T04:33:50;11.50;99.90
10010;DHT22;5044;48.652;9.250;2022-10-26T04:36:17;11.50;99.90
10010;DHT22;5044;48.652;9.250;2022-10-26T04:38:44;11.70;99.90
10010;DHT22;5044;48.652;9.250;2022-10-26T04:41:11;11.50;99.90
10010;DHT22;5044;48.652;9.250;2022-10-26T04:43:37;11.50;99.90
10010;DHT22;5044;48.652;9.250;2022-10-26T04:46:06;11.50;99.90
10010;DHT22;5044;48.652;9.250;2022-10-26T04:48:33;11.50;99.90
10010;DHT22;5044;48.652;9.250;2022-10-26T04:51:00;11.50;99.90
10010;DHT22;5044;48.652;9.250;2022-10-26T04:53:27;11.60;99.90
10010;DHT22;5044;48.652;9.250;2022-10-26T04:55:58;11.70;99.90
10010;DHT22;5044;48.652;9.250;2022-10-26T04:58:25;11.50;99.90
10010;DHT22;5044;48.652;9.250;2022-10-26T05:00:52;11.50;99.90
10010;DHT22;5044;48.652;9.250;2022-10-26T05:03:21;11.50;99.90
10010;DHT22;5044;48.652;9.250;2022-10-26T05:05:48;11.50;99.90
10010;DHT22;5044;48.652;9.250;2022-10-26T05:08:15;11.50;99.90
10010;DHT22;5044;48.652;9.250;2022-10-26T05:10:42;11.50;99.90
10010;DHT22;5044;48.652;9.250;2022-10-26T05:13:09;11.60;99.90
10010;DHT22;5044;48.652;9.250;2022-10-26T05:15:36;11.50;99.90
10010;DHT22;5044;48.652;9.250;2022-10-26T05:18:04;11.50;99.90
10010;DHT22;5044;48.652;9.250;2022-10-26T05:20:35;11.50;99.90
10010;DHT22;5044;48.652;9.250;2022-10-26T05:23:04;11.50;99.90
10010;DHT22;5044;48.652;9.250;2022-10-26T05:25:33;11.50;99.90
10010;DHT22;5044;48.652;9.250;2022-10-26T05:28:02;11.50;99.90
10010;DHT22;5044;48.652;9.250;2022-10-26T05:30:29;11.50;99.90
10010;DHT22;5044;48.652;9.250;2022-10-26T05:32:58;11.50;99.90
10010;DHT22;5044;48.652;9.250;2022-10-26T05:35:26;11.50;99.90
10010;DHT22;5044;48.652;9.250;2022-10-26T05:37:54;11.50;99.90
10010;DHT22;5044;48.652;9.250;2022-10-26T05:40:21;11.70;99.90
10010;DHT22;5044;48.652;9.250;2022-10-26T05:42:49;11.50;99.90
10010;DHT22;5044;48.652;9.250;2022-10-26T05:45:16;11.50;99.90
10010;DHT22;5044;48.652;9.250;2022-10-26T05:47:44;11.60;99.90
10010;DHT22;5044;48.652;9.250;2022-10-26T05:50:12;11.50;99.90
10010;DHT22;5044;48.652;9.250;2022-10-26T05:52:39;11.40;99.90
10010;DHT22;5044;48.652;9.250;2022-10-26T05:55:09;11.50;99.90
10010;DHT22;5044;48.652;9.250;2022-10-26T05:57:37;11.60;99.90
10010;DHT22;5044;48.652;9.250;2022-10-26T06:00:07;11.60;99.90
10010;DHT22;5044;48.652;9.250;2022-10-26T06:02:39;11.60;99.90
10010;DHT22;5044;48.652;9.250;2022-10-26T06:05:16;11.60;99.90
10010;DHT22;5044;48.652;9.250;2022-10-26T06:07:45;11.60;99.90
10010;DHT22;5044;48.652;9.250;2022-10-26T06:10:15;11.60;99.90
10010;DHT22;5044;48.652;9.250;2022-10-26T06:12:44;11.60;99.90
10010;DHT22;5044;48.652;9.250;2022-10-26T06:15:13;11.70;99.90
10010;DHT22;5044;48.652;9.250;2022-10-26T06:17:50;11.70;99.90
10010;DHT22;5044;48.652;9.250;2022-10-26T06:20:34;11.70;99.90
10010;DHT22;5044;48.652;9.250;2022-10-26T06:23:19;11.80;99.90
10010;DHT22;5044;48.652;9.250;2022-10-26T06:25:59;11.90;99.90
10010;DHT22;5044;48.652;9.250;2022-10-26T06:28:33;11.90;99.90
10010;DHT22;5044;48.652;9.250;2022-10-26T06:31:03;12.00;99.90
10010;DHT22;5044;48.652;9.250;2022-10-26T06:33:30;12.10;99.90
10010;DHT22;5044;48.652;9.250;2022-10-26T06:36:04;12.10;99.90
10010;DHT22;5044;48.652;9.250;2022-10-26T06:38:34;12.20;99.90
10010;DHT22;5044;48.652;9.250;2022-10-26T06:41:04;12.30;99.90
10010;DHT22;5044;48.652;9.250;2022-10-26T06:43:34;12.40;99.90
10010;DHT22;5044;48.652;9.250;2022-10-26T06:46:07;12.40;99.90
10010;DHT22;5044;48.652;9.250;2022-10-26T06:48:46;12.40;99.90
10010;DHT22;5044;48.652;9.250;2022-10-26T06:51:15;12.50;99.90
10010;DHT22;5044;48.652;9.250;2022-10-26T06:53:46;12.60;99.90
10010;DHT22;5044;48.652;9.250;2022-10-26T06:56:18;12.60;99.90
10010;DHT22;5044;48.652;9.250;2022-10-26T06:58:48;12.70;99.90
10010;DHT22;5044;48.652;9.250;2022-10-26T07:01:19;12.70;99.90
10010;DHT22;5044;48.652;9.250;2022-10-26T07:03:46;12.70;99.90
10010;DHT22;5044;48.652;9.250;2022-10-26T07:06:13;12.70;99.90
10010;DHT22;5044;48.652;9.250;2022-10-26T07:08:40;12.60;99.90
10010;DHT22;5044;48.652;9.250;2022-10-26T07:11:07;12.70;99.90
10010;DHT22;5044;48.652;9.250;2022-10-26T07:13:36;12.60;99.90
10010;DHT22;5044;48.652;9.250;2022-10-26T07:16:04;12.60;99.90
10010;DHT22;5044;48.652;9.250;2022-10-26T07:18:31;12.50;99.90
10010;DHT22;5044;48.652;9.250;2022-10-26T07:20:58;12.50;99.90
10010;DHT22;5044;48.652;9.250;2022-10-26T07:23:25;12.50;99.90
10010;DHT22;5044;48.652;9.250;2022-10-26T07:25:52;12.50;99.90
10010;DHT22;5044;48.652;9.250;2022-10-26T07:28:21;12.60;99.90
10010;DHT22;5044;48.652;9.250;2022-10-26T07:30:50;12.50;99.90
10010;DHT22;5044;48.652;9.250;2022-10-26T07:33:17;12.60;99.90
10010;DHT22;5044;48.652;9.250;2022-10-26T07:35:44;12.50;99.90
10010;DHT22;5044;48.652;9.250;2022-10-26T07:38:12;12.60;99.90
10010;DHT22;5044;48.652;9.250;2022-10-26T07:40:39;12.50;99.90
10010;DHT22;5044;48.652;9.250;2022-10-26T07:43:07;12.60;99.90
10010;DHT22;5044;48.652;9.250;2022-10-26T07:45:34;12.50;99.90
10010;DHT22;5044;48.652;9.250;2022-10-26T07:48:03;12.50;99.90
10010;DHT22;5044;48.652;9.250;2022-10-26T07:50:30;12.60;99.90
10010;DHT22;5044;48.652;9.250;2022-10-26T07:52:57;12.60;99.90
10010;DHT22;5044;48.652;9.250;2022-10-26T07:55:25;12.70;99.90
10010;DHT22;5044;48.652;9.250;2022-10-26T07:57:55;12.60;99.90
10010;DHT22;5044;48.652;9.250;2022-10-26T08:00:22;12.70;99.90
10010;DHT22;5044;48.652;9.250;2022-10-26T08:02:50;12.80;99.90
10010;DHT22;5044;48.652;9.250;2022-10-26T08:05:18;12.90;99.90
10010;DHT22;5044;48.652;9.250;2022-10-26T08:07:46;13.10;99.90
10010;DHT22;5044;48.652;9.250;2022-10-26T08:10:13;13.00;99.90
10010;DHT22;5044;48.652;9.250;2022-10-26T08:12:42;13.10;99.90
10010;DHT22;5044;48.652;9.250;2022-10-26T08:15:09;13.20;99.90
10010;DHT22;5044;48.652;9.250;2022-10-26T08:17:36;13.20;99.90
10010;DHT22;5044;48.652;9.250;2022-10-26T08:20:04;13.10;99.90
10010;DHT22;5044;48.652;9.250;2022-10-26T08:22:33;13.20;99.90
10010;DHT22;5044;48.652;9.250;2022-10-26T08:25:00;13.20;99.90
10010;DHT22;5044;48.652;9.250;2022-10-26T08:27:28;13.30;99.90
10010;DHT22;5044;48.652;9.250;2022-10-26T08:29:55;13.30;99.90
10010;DHT22;5044;48.652;9.250;2022-10-26T08:32:22;13.30;99.90
10010;DHT22;5044;48.652;9.250;2022-10-26T08:34:49;13.40;99.90
10010;DHT22;5044;48.652;9.250;2022-10-26T08:37:16;13.50;99.90
10010;DHT22;5044;48.652;9.250;2022-10-26T08:39:45;13.50;99.90
10010;DHT22;5044;48.652;9.250;2022-10-26T08:42:16;13.60;99.90
10010;DHT22;5044;48.652;9.250;2022-10-26T08:44:46;13.60;99.90
10010;DHT22;5044;48.652;9.250;2022-10-26T08:47:18;13.60;99.90
10010;DHT22;5044;48.652;9.250;2022-10-26T08:49:52;13.60;99.90
10010;DHT22;5044;48.652;9.250;2022-10-26T08:52:28;13.60;99.90
10010;DHT22;5044;48.652;9.250;2022-10-26T08:54:59;13.70;99.90
10010;DHT22;5044;48.652;9.250;2022-10-26T08:57:34;13.70;99.90
10010;DHT22;5044;48.652;9.250;2022-10-26T09:00:04;13.80;99.90
10010;DHT22;5044;48.652;9.250;2022-10-26T09:02:36;13.80;99.90
10010;DHT22;5044;48.652;9.250;2022-10-26T09:05:12;14.00;99.90
10010;DHT22;5044;48.652;9.250;2022-10-26T09:07:47;13.90;99.90
10010;DHT22;5044;48.652;9.250;2022-10-26T09:10:28;14.00;99.90
10010;DHT22;5044;48.652;9.250;2022-10-26T09:13:05;14.00;99.90
10010;DHT22;5044;48.652;9.250;2022-10-26T09:15:44;14.10;99.90
10010;DHT22;5044;48.652;9.250;2022-10-26T09:18:23;14.20;99.90
10010;DHT22;5044;48.652;9.250;2022-10-26T09:21:02;14.30;99.90
10010;DHT22;5044;48.652;9.250;2022-10-26T09:23:48;14.60;99.90
10010;DHT22;5044;48.652;9.250;2022-10-26T09:26:31;14.60;99.90
10010;DHT22;5044;48.652;9.250;2022-10-26T09:29:01;14.70;99.90
10010;DHT22;5044;48.652;9.250;2022-10-26T09:31:37;14.90;99.90
10010;DHT22;5044;48.652;9.250;2022-10-26T09:34:06;15.10;99.90
10010;DHT22;5044;48.652;9.250;2022-10-26T09:36:36;15.00;99.90
10010;DHT22;5044;48.652;9.250;2022-10-26T09:39:12;14.90;99.90
10010;DHT22;5044;48.652;9.250;2022-10-26T09:41:47;15.20;99.90
10010;DHT22;5044;48.652;9.250;2022-10-26T09:44:20;15.50;99.90
10010;DHT22;5044;48.652;9.250;2022-10-26T09:46:55;15.80;99.90
10010;DHT22;5044;48.652;9.250;2022-10-26T09:49:29;15.80;99.90
10010;DHT22;5044;48.652;9.250;2022-10-26T09:52:00;16.00;99.90
10010;DHT22;5044;48.652;9.250;2022-10-26T09:54:27;16.10;99.90
10010;DHT22;5044;48.652;9.250;2022-10-26T09:56:58;16.20;99.90
10010;DHT22;5044;48.652;9.250;2022-10-26T09:59:27;16.50;99.90
10010;DHT22;5044;48.652;9.250;2022-10-26T10:01:56;16.60;99.90
10010;DHT22;5044;48.652;9.250;2022-10-26T10:04:24;16.50;99.90
10010;DHT22;5044;48.652;9.250;2022-10-26T10:07:10;16.50;99.90
10010;DHT22;5044;48.652;9.250;2022-10-26T10:09:40;16.60;99.90
10010;DHT22;5044;48.652;9.250;2022-10-26T10:12:18;16.70;99.90
10010;DHT22;5044;48.652;9.250;2022-10-26T10:14:55;16.60;99.90
10010;DHT22;5044;48.652;9.250;2022-10-26T10:17:23;16.90;99.90
10010;DHT22;5044;48.652;9.250;2022-10-26T10:19:50;17.00;99.90
10010;DHT22;5044;48.652;9.250;2022-10-26T10:22:19;17.00;99.90
10010;DHT22;5044;48.652;9.250;2022-10-26T10:24:53;17.10;99.90
10010;DHT22;5044;48.652;9.250;2022-10-26T10:27:25;17.20;99.90
10010;DHT22;5044;48.652;9.250;2022-10-26T10:29:53;17.30;99.90
10010;DHT22;5044;48.652;9.250;2022-10-26T10:32:22;17.40;99.90
10010;DHT22;5044;48.652;9.250;2022-10-26T10:34:52;17.70;99.90
10010;DHT22;5044;48.652;9.250;2022-10-26T10:37:25;17.90;99.90
10010;DHT22;5044;48.652;9.250;2022-10-26T10:39:56;18.10;99.90
10010;DHT22;5044;48.652;9.250;2022-10-26T10:42:30;18.30;99.90
10010;DHT22;5044;48.652;9.250;2022-10-26T10:44:59;18.50;99.90
10010;DHT22;5044;48.652;9.250;2022-10-26T10:47:31;18.60;99.90
10010;DHT22;5044;48.652;9.250;2022-10-26T10:50:00;19.00;99.90
10010;DHT22;5044;48.652;9.250;2022-10-26T10:52:29;19.30;99.90
10010;DHT22;5044;48.652;9.250;2022-10-26T10:55:09;19.50;99.90
10010;DHT22;5044;48.652;9.250;2022-10-26T10:58:07;19.60;99.90
10010;DHT22;5044;48.652;9.250;2022-10-26T11:00:40;19.80;99.90
10010;DHT22;5044;48.652;9.250;2022-10-26T11:06:03;20.00;99.90
10010;DHT22;5044;48.652;9.250;2022-10-26T11:08:37;20.30;99.90
10010;DHT22;5044;48.652;9.250;2022-10-26T11:11:08;20.40;99.90
10010;DHT22;5044;48.652;9.250;2022-10-26T11:13:40;20.10;99.90
10010;DHT22;5044;48.652;9.250;2022-10-26T11:16:15;20.10;99.90
10010;DHT22;5044;48.652;9.250;2022-10-26T11:18:58;20.10;99.90
10010;DHT22;5044;48.652;9.250;2022-10-26T11:21:30;19.90;99.90
10010;DHT22;5044;48.652;9.250;2022-10-26T11:24:09;20.00;99.90
10010;DHT22;5044;48.652;9.250;2022-10-26T11:26:45;19.80;99.90
10010;DHT22;5044;48.652;9.250;2022-10-26T11:29:25;19.70;99.90
10010;DHT22;5044;48.652;9.250;2022-10-26T11:32:00;19.60;99.90
10010;DHT22;5044;48.652;9.250;2022-10-26T11:34:32;19.60;99.90
10010;DHT22;5044;48.652;9.250;2022-10-26T11:37:08;19.60;99.90
10010;DHT22;5044;48.652;9.250;2022-10-26T11:39:43;19.40;99.90
10010;DHT22;5044;48.652;9.250;2022-10-26T11:42:23;19.40;99.90
10010;DHT22;5044;48.652;9.250;2022-10-26T11:44:58;19.40;99.90
10010;DHT22;5044;48.652;9.250;2022-10-26T11:47:29;19.40;99.90
10010;DHT22;5044;48.652;9.250;2022-10-26T11:50:09;19.50;99.90
10010;DHT22;5044;48.652;9.250;2022-10-26T11:52:45;19.70;99.90
10010;DHT22;5044;48.652;9.250;2022-10-26T11:55:13;19.80;99.90
10010;DHT22;5044;48.652;9.250;2022-10-26T11:57:45;19.90;99.90
10010;DHT22;5044;48.652;9.250;2022-10-26T12:00:20;20.00;99.90
10010;DHT22;5044;48.652;9.250;2022-10-26T12:02:55;20.30;99.90
10010;DHT22;5044;48.652;9.250;2022-10-26T12:05:44;20.20;99.90
10010;DHT22;5044;48.652;9.250;2022-10-26T12:08:23;20.30;99.90
10010;DHT22;5044;48.652;9.250;2022-10-26T12:11:01;20.40;99.90
10010;DHT22;5044;48.652;9.250;2022-10-26T12:13:37;20.50;99.90
10010;DHT22;5044;48.652;9.250;2022-10-26T12:16:14;20.40;99.90
10010;DHT22;5044;48.652;9.250;2022-10-26T12:18:49;20.40;99.90
10010;DHT22;5044;48.652;9.250;2022-10-26T12:21:16;20.50;99.90
10010;DHT22;5044;48.652;9.250;2022-10-26T12:23:55;20.40;99.90
10010;DHT22;5044;48.652;9.250;2022-10-26T12:26:51;20.50;99.90
10010;DHT22;5044;48.652;9.250;2022-10-26T12:29:33;20.50;99.90
10010;DHT22;5044;48.652;9.250;2022-10-26T12:34:59;20.40;99.90
10010;DHT22;5044;48.652;9.250;2022-10-26T12:37:35;20.50;99.90
10010;DHT22;5044;48.652;9.250;2022-10-26T12:40:37;20.40;99.90
10010;DHT22;5044;48.652;9.250;2022-10-26T12:43:33;20.30;99.90
10010;DHT22;5044;48.652;9.250;2022-10-26T12:52:37;20.20;99.90
10010;DHT22;5044;48.652;9.250;2022-10-26T12:58:57;20.30;99.90
10010;DHT22;5044;48.652;9.250;2022-10-26T13:01:49;20.30;99.90
10010;DHT22;5044;48.652;9.250;2022-10-26T13:07:15;20.30;99.90
10010;DHT22;5044;48.652;9.250;2022-10-26T13:09:55;20.40;99.90
10010;DHT22;5044;48.652;9.250;2022-10-26T13:12:33;20.40;99.90
10010;DHT22;5044;48.652;9.250;2022-10-26T13:15:03;20.50;99.90
10010;DHT22;5044;48.652;9.250;2022-10-26T13:17:33;20.80;99.90
10010;DHT22;5044;48.652;9.250;2022-10-26T13:20:02;21.00;96.30
10010;DHT22;5044;48.652;9.250;2022-10-26T13:22:30;21.10;99.60
10010;DHT22;5044;48.652;9.250;2022-10-26T13:25:15;21.10;96.70
10010;DHT22;5044;48.652;9.250;2022-10-26T13:27:57;21.10;99.90
10010;DHT22;5044;48.652;9.250;2022-10-26T13:30:42;21.30;97.70
10010;DHT22;5044;48.652;9.250;2022-10-26T13:33:13;21.30;98.40
10010;DHT22;5044;48.652;9.250;2022-10-26T13:35:44;21.20;97.50
10010;DHT22;5044;48.652;9.250;2022-10-26T13:38:23;21.20;96.40
10010;DHT22;5044;48.652;9.250;2022-10-26T13:41:03;21.10;93.90
10010;DHT22;5044;48.652;9.250;2022-10-26T13:43:31;20.90;96.30
10010;DHT22;5044;48.652;9.250;2022-10-26T13:46:01;21.10;96.30
10010;DHT22;5044;48.652;9.250;2022-10-26T13:48:36;21.20;96.10
10010;DHT22;5044;48.652;9.250;2022-10-26T13:51:13;21.10;95.60
10010;DHT22;5044;48.652;9.250;2022-10-26T13:53:46;21.10;93.80
10010;DHT22;5044;48.652;9.250;2022-10-26T13:56:29;21.10;96.20
10010;DHT22;5044;48.652;9.250;2022-10-26T13:59:00;21.10;95.40
10010;DHT22;5044;48.652;9.250;2022-10-26T14:01:28;21.20;95.70
10010;DHT22;5044;48.652;9.250;2022-10-26T14:04:13;21.20;94.60
10010;DHT22;5044;48.652;9.250;2022-10-26T14:06:41;21.30;96.10
10010;DHT22;5044;48.652;9.250;2022-10-26T14:09:14;21.40;94.60
10010;DHT22;5044;48.652;9.250;2022-10-26T14:11:48;21.30;93.80
10010;DHT22;5044;48.652;9.250;2022-10-26T14:14:20;21.20;94.00
10010;DHT22;5044;48.652;9.250;2022-10-26T14:16:52;21.30;93.70
10010;DHT22;5044;48.652;9.250;2022-10-26T14:19:30;21.20;95.90
10010;DHT22;5044;48.652;9.250;2022-10-26T14:22:01;21.30;95.00
10010;DHT22;5044;48.652;9.250;2022-10-26T14:24:39;21.30;95.90
10010;DHT22;5044;48.652;9.250;2022-10-26T14:27:21;21.20;96.90
10010;DHT22;5044;48.652;9.250;2022-10-26T14:29:50;21.20;95.60
10010;DHT22;5044;48.652;9.250;2022-10-26T14:32:21;21.20;97.60
10010;DHT22;5044;48.652;9.250;2022-10-26T14:34:50;21.20;96.70
10010;DHT22;5044;48.652;9.250;2022-10-26T14:37:39;21.20;94.90
10010;DHT22;5044;48.652;9.250;2022-10-26T14:40:15;21.10;95.90
10010;DHT22;5044;48.652;9.250;2022-10-26T14:42:55;21.10;97.40
10010;DHT22;5044;48.652;9.250;2022-10-26T14:45:31;21.20;97.40
10010;DHT22;5044;48.652;9.250;2022-10-26T14:48:02;21.10;95.20
10010;DHT22;5044;48.652;9.250;2022-10-26T14:50:32;21.00;95.00
10010;DHT22;5044;48.652;9.250;2022-10-26T14:53:10;21.00;96.30
10010;DHT22;5044;48.652;9.250;2022-10-26T14:55:47;20.90;94.80
10010;DHT22;5044;48.652;9.250;2022-10-26T14:58:25;20.70;95.30
10010;DHT22;5044;48.652;9.250;2022-10-26T15:01:26;20.60;96.20
10010;DHT22;5044;48.652;9.250;2022-10-26T15:04:03;20.50;96.40
10010;DHT22;5044;48.652;9.250;2022-10-26T15:06:42;20.40;92.50
10010;DHT22;5044;48.652;9.250;2022-10-26T15:09:29;20.40;94.90
10010;DHT22;5044;48.652;9.250;2022-10-26T15:11:57;20.30;97.70
10010;DHT22;5044;48.652;9.250;2022-10-26T15:14:29;20.30;97.00
10010;DHT22;5044;48.652;9.250;2022-10-26T15:17:04;20.20;96.90
10010;DHT22;5044;48.652;9.250;2022-10-26T15:19:41;20.10;96.60
10010;DHT22;5044;48.652;9.250;2022-10-26T15:22:21;20.00;97.20
10010;DHT22;5044;48.652;9.250;2022-10-26T15:24:53;19.90;96.00
10010;DHT22;5044;48.652;9.250;2022-10-26T15:27:21;19.90;97.10
10010;DHT22;5044;48.652;9.250;2022-10-26T15:29:51;19.80;98.20
10010;DHT22;5044;48.652;9.250;2022-10-26T15:32:33;19.80;98.50
10010;DHT22;5044;48.652;9.250;2022-10-26T15:35:29;19.80;99.10
10010;DHT22;5044;48.652;9.250;2022-10-26T15:37:57;19.70;99.90
10010;DHT22;5044;48.652;9.250;2022-10-26T15:40:29;19.50;98.70
10010;DHT22;5044;48.652;9.250;2022-10-26T15:43:03;19.50;99.40
10010;DHT22;5044;48.652;9.250;2022-10-26T15:45:45;19.40;99.90
10010;DHT22;5044;48.652;9.250;2022-10-26T15:48:20;19.40;99.50
10010;DHT22;5044;48.652;9.250;2022-10-26T15:50:48;19.30;98.80
10010;DHT22;5044;48.652;9.250;2022-10-26T15:53:18;19.20;99.60
10010;DHT22;5044;48.652;9.250;2022-10-26T15:55:45;19.10;99.90
10010;DHT22;5044;48.652;9.250;2022-10-26T15:58:13;19.10;99.90
10010;DHT22;5044;48.652;9.250;2022-10-26T16:00:45;19.00;99.90
10010;DHT22;5044;48.652;9.250;2022-10-26T16:03:20;18.80;99.90
10010;DHT22;5044;48.652;9.250;2022-10-26T16:05:52;18.80;99.90
10010;DHT22;5044;48.652;9.250;2022-10-26T16:08:21;18.70;99.90
10010;DHT22;5044;48.652;9.250;2022-10-26T16:10:51;18.60;99.90
10010;DHT22;5044;48.652;9.250;2022-10-26T16:13:20;18.50;99.90
10010;DHT22;5044;48.652;9.250;2022-10-26T16:15:48;18.40;99.90
10010;DHT22;5044;48.652;9.250;2022-10-26T16:18:16;18.30;99.90
10010;DHT22;5044;48.652;9.250;2022-10-26T16:20:44;18.20;99.90
10010;DHT22;5044;48.652;9.250;2022-10-26T16:23:14;18.10;99.90
10010;DHT22;5044;48.652;9.250;2022-10-26T16:25:43;18.00;99.90
10010;DHT22;5044;48.652;9.250;2022-10-26T16:28:15;17.90;99.90
10010;DHT22;5044;48.652;9.250;2022-10-26T16:30:42;17.80;99.90
10010;DHT22;5044;48.652;9.250;2022-10-26T16:33:11;17.70;99.90
10010;DHT22;5044;48.652;9.250;2022-10-26T16:35:42;17.60;99.90
10010;DHT22;5044;48.652;9.250;2022-10-26T16:38:12;17.60;99.90
10010;DHT22;5044;48.652;9.250;2022-10-26T16:40:40;17.50;99.90
10010;DHT22;5044;48.652;9.250;2022-10-26T16:43:12;17.40;99.90